sensor_id;sensor_type;location;lat;lon;timestamp;P1;durP1;ratioP1;P2;durP2;ratioP2
1811;SDS011;904;47.814;11.134;2023-12-20T00:00:06;5.10;;;3.20;;
1811;SDS011;904;47.814;11.134;2023-12-20T00:02:33;3.83;;;3.10;;
1811;SDS011;904;47.814;11.134;2023-12-20T00:05:03;4.35;;;3.15;;
1811;SDS011;904;47.814;11.134;2023-12-20T00:07:37;4.97;;;3.10;;
1811;SDS011;904;47.814;11.134;2023-12-20T00:10:07;5.28;;;3.70;;
1811;SDS011;904;47.814;11.134;2023-12-20T00:12:34;7.40;;;3.17;;
1811;SDS011;904;47.814;11.134;2023-12-20T00:15:01;5.60;;;3.83;;
1811;SDS011;904;47.814;11.134;2023-12-20T00:17:29;5.30;;;3.20;;
1811;SDS011;904;47.814;11.134;2023-12-20T00:19:56;5.82;;;3.60;;
1811;SDS011;904;47.814;11.134;2023-12-20T00:22:28;5.88;;;3.40;;
1811;SDS011;904;47.814;11.134;2023-12-20T00:25:00;5.85;;;3.30;;
1811;SDS011;904;47.814;11.134;2023-12-20T00:27:27;6.68;;;3.72;;
1811;SDS011;904;47.814;11.134;2023-12-20T00:29:54;4.18;;;2.88;;
1811;SDS011;904;47.814;11.134;2023-12-20T00:32:23;5.35;;;3.80;;
1811;SDS011;904;47.814;11.134;2023-12-20T00:34:51;5.85;;;3.20;;
1811;SDS011;904;47.814;11.134;2023-12-20T00:37:18;5.13;;;3.28;;
1811;SDS011;904;47.814;11.134;2023-12-20T00:39:45;5.50;;;3.75;;
1811;SDS011;904;47.814;11.134;2023-12-20T00:42:13;5.47;;;3.42;;
1811;SDS011;904;47.814;11.134;2023-12-20T00:44:41;4.65;;;2.85;;
1811;SDS011;904;47.814;11.134;2023-12-20T00:47:08;4.47;;;2.97;;
1811;SDS011;904;47.814;11.134;2023-12-20T00:49:39;5.07;;;3.22;;
1811;SDS011;904;47.814;11.134;2023-12-20T00:52:06;5.20;;;3.10;;
1811;SDS011;904;47.814;11.134;2023-12-20T00:54:33;3.95;;;2.50;;
1811;SDS011;904;47.814;11.134;2023-12-20T00:57:00;4.72;;;3.60;;
1811;SDS011;904;47.814;11.134;2023-12-20T00:59:32;5.88;;;2.70;;
1811;SDS011;904;47.814;11.134;2023-12-20T01:01:59;4.15;;;3.35;;
1811;SDS011;904;47.814;11.134;2023-12-20T01:04:26;8.25;;;3.58;;
1811;SDS011;904;47.814;11.134;2023-12-20T01:07:01;5.10;;;3.53;;
1811;SDS011;904;47.814;11.134;2023-12-20T01:09:28;5.25;;;3.30;;
1811;SDS011;904;47.814;11.134;2023-12-20T01:11:55;6.10;;;3.70;;
1811;SDS011;904;47.814;11.134;2023-12-20T01:14:27;4.82;;;2.92;;
1811;SDS011;904;47.814;11.134;2023-12-20T01:16:56;5.60;;;3.88;;
1811;SDS011;904;47.814;11.134;2023-12-20T01:19:28;5.70;;;3.30;;
1811;SDS011;904;47.814;11.134;2023-12-20T01:22:00;3.85;;;3.00;;
1811;SDS011;904;47.814;11.134;2023-12-20T01:24:30;4.22;;;3.00;;
1811;SDS011;904;47.814;11.134;2023-12-20T01:27:03;4.95;;;3.38;;
1811;SDS011;904;47.814;11.134;2023-12-20T01:29:30;3.72;;;2.53;;
1811;SDS011;904;47.814;11.134;2023-12-20T01:31:58;5.65;;;2.90;;
1811;SDS011;904;47.814;11.134;2023-12-20T01:34:25;5.47;;;3.10;;
1811;SDS011;904;47.814;11.134;2023-12-20T01:36:52;4.95;;;3.22;;
1811;SDS011;904;47.814;11.134;2023-12-20T01:39:21;4.53;;;2.50;;
1811;SDS011;904;47.814;11.134;2023-12-20T01:41:49;5.72;;;3.38;;
1811;SDS011;904;47.814;11.134;2023-12-20T01:44:20;4.82;;;3.30;;
1811;SDS011;904;47.814;11.134;2023-12-20T01:46:49;6.32;;;3.92;;
1811;SDS011;904;47.814;11.134;2023-12-20T01:49:18;4.88;;;3.38;;
1811;SDS011;904;47.814;11.134;2023-12-20T01:51:46;4.45;;;2.85;;
1811;SDS011;904;47.814;11.134;2023-12-20T01:54:14;5.60;;;3.35;;
1811;SDS011;904;47.814;11.134;2023-12-20T01:56:46;4.80;;;3.28;;
1811;SDS011;904;47.814;11.134;2023-12-20T01:59:15;4.70;;;2.90;;
1811;SDS011;904;47.814;11.134;2023-12-20T02:01:48;4.15;;;2.70;;
1811;SDS011;904;47.814;11.134;2023-12-20T02:04:16;4.20;;;2.70;;
1811;SDS011;904;47.814;11.134;2023-12-20T02:06:46;7.00;;;3.78;;
1811;SDS011;904;47.814;11.134;2023-12-20T02:09:13;6.20;;;3.92;;
1811;SDS011;904;47.814;11.134;2023-12-20T02:11:42;7.85;;;4.60;;
1811;SDS011;904;47.814;11.134;2023-12-20T02:14:09;5.22;;;3.22;;
1811;SDS011;904;47.814;11.134;2023-12-20T02:16:38;5.05;;;2.83;;
1811;SDS011;904;47.814;11.134;2023-12-20T02:19:06;6.10;;;2.80;;
1811;SDS011;904;47.814;11.134;2023-12-20T02:21:41;4.50;;;3.10;;
1811;SDS011;904;47.814;11.134;2023-12-20T02:24:08;5.00;;;2.60;;
1811;SDS011;904;47.814;11.134;2023-12-20T02:26:37;3.53;;;2.38;;
1811;SDS011;904;47.814;11.134;2023-12-20T02:29:05;4.05;;;2.53;;
1811;SDS011;904;47.814;11.134;2023-12-20T02:31:32;5.20;;;3.22;;
1811;SDS011;904;47.814;11.134;2023-12-20T02:33:59;4.78;;;2.50;;
1811;SDS011;904;47.814;11.134;2023-12-20T02:36:26;5.55;;;2.75;;
1811;SDS011;904;47.814;11.134;2023-12-20T02:38:54;4.65;;;2.45;;
1811;SDS011;904;47.814;11.134;2023-12-20T02:41:23;3.10;;;2.30;;
1811;SDS011;904;47.814;11.134;2023-12-20T02:43:50;4.05;;;2.65;;
1811;SDS011;904;47.814;11.134;2023-12-20T02:46:17;5.07;;;3.10;;
1811;SDS011;904;47.814;11.134;2023-12-20T02:48:45;4.30;;;2.50;;
1811;SDS011;904;47.814;11.134;2023-12-20T02:51:13;3.92;;;2.20;;
1811;SDS011;904;47.814;11.134;2023-12-20T02:53:40;4.45;;;2.70;;
1811;SDS011;904;47.814;11.134;2023-12-20T02:56:08;3.25;;;1.85;;
1811;SDS011;904;47.814;11.134;2023-12-20T02:58:35;3.83;;;2.10;;
1811;SDS011;904;47.814;11.134;2023-12-20T03:01:03;2.70;;;1.65;;
1811;SDS011;904;47.814;11.134;2023-12-20T03:03:30;3.50;;;1.70;;
1811;SDS011;904;47.814;11.134;2023-12-20T03:05:57;3.15;;;1.77;;
1811;SDS011;904;47.814;11.134;2023-12-20T03:08:24;3.72;;;1.85;;
1811;SDS011;904;47.814;11.134;2023-12-20T03:10:51;3.17;;;1.80;;
1811;SDS011;904;47.814;11.134;2023-12-20T03:13:20;3.00;;;1.60;;
1811;SDS011;904;47.814;11.134;2023-12-20T03:15:47;3.33;;;1.58;;
1811;SDS011;904;47.814;11.134;2023-12-20T03:18:16;4.00;;;1.83;;
1811;SDS011;904;47.814;11.134;2023-12-20T03:20:44;2.53;;;1.42;;
1811;SDS011;904;47.814;11.134;2023-12-20T03:23:17;2.60;;;1.50;;
1811;SDS011;904;47.814;11.134;2023-12-20T03:25:46;2.80;;;1.38;;
1811;SDS011;904;47.814;11.134;2023-12-20T03:28:16;2.55;;;1.38;;
1811;SDS011;904;47.814;11.134;2023-12-20T03:30:49;3.30;;;1.58;;
1811;SDS011;904;47.814;11.134;2023-12-20T03:33:16;3.53;;;1.92;;
1811;SDS011;904;47.814;11.134;2023-12-20T03:35:43;3.40;;;1.77;;
1811;SDS011;904;47.814;11.134;2023-12-20T03:38:10;3.05;;;1.50;;
1811;SDS011;904;47.814;11.134;2023-12-20T03:40:37;2.92;;;1.70;;
1811;SDS011;904;47.814;11.134;2023-12-20T03:43:06;4.80;;;1.60;;
1811;SDS011;904;47.814;11.134;2023-12-20T03:45:33;3.85;;;2.00;;
1811;SDS011;904;47.814;11.134;2023-12-20T03:48:02;2.80;;;1.73;;
1811;SDS011;904;47.814;11.134;2023-12-20T03:50:31;3.20;;;1.60;;
1811;SDS011;904;47.814;11.134;2023-12-20T03:52:58;2.70;;;1.35;;
1811;SDS011;904;47.814;11.134;2023-12-20T03:55:25;3.55;;;2.05;;
1811;SDS011;904;47.814;11.134;2023-12-20T03:57:56;2.88;;;1.20;;
1811;SDS011;904;47.814;11.134;2023-12-20T04:00:23;3.17;;;1.80;;
1811;SDS011;904;47.814;11.134;2023-12-20T04:02:50;3.08;;;1.60;;
1811;SDS011;904;47.814;11.134;2023-12-20T04:05:19;2.70;;;1.83;;
1811;SDS011;904;47.814;11.134;2023-12-20T04:07:46;4.72;;;2.28;;
1811;SDS011;904;47.814;11.134;2023-12-20T04:10:13;3.20;;;1.98;;
1811;SDS011;904;47.814;11.134;2023-12-20T04:12:42;2.83;;;1.58;;
1811;SDS011;904;47.814;11.134;2023-12-20T04:15:12;3.70;;;1.80;;
1811;SDS011;904;47.814;11.134;2023-12-20T04:17:40;3.05;;;1.60;;
1811;SDS011;904;47.814;11.134;2023-12-20T04:20:07;2.30;;;1.30;;
1811;SDS011;904;47.814;11.134;2023-12-20T04:22:36;3.60;;;1.83;;
1811;SDS011;904;47.814;11.134;2023-12-20T04:25:03;3.00;;;1.20;;
1811;SDS011;904;47.814;11.134;2023-12-20T04:27:30;2.40;;;1.30;;
1811;SDS011;904;47.814;11.134;2023-12-20T04:30:02;3.67;;;1.27;;
1811;SDS011;904;47.814;11.134;2023-12-20T04:32:35;4.03;;;1.58;;
1811;SDS011;904;47.814;11.134;2023-12-20T04:35:04;2.65;;;1.40;;
1811;SDS011;904;47.814;11.134;2023-12-20T04:37:32;2.70;;;1.35;;
1811;SDS011;904;47.814;11.134;2023-12-20T04:40:01;2.60;;;1.50;;
1811;SDS011;904;47.814;11.134;2023-12-20T04:42:28;2.78;;;1.30;;
1811;SDS011;904;47.814;11.134;2023-12-20T04:44:55;2.33;;;1.30;;
1811;SDS011;904;47.814;11.134;2023-12-20T04:47:22;2.70;;;1.48;;
1811;SDS011;904;47.814;11.134;2023-12-20T04:49:49;3.35;;;1.70;;
1811;SDS011;904;47.814;11.134;2023-12-20T04:52:18;3.13;;;1.27;;
1811;SDS011;904;47.814;11.134;2023-12-20T04:54:45;2.60;;;1.60;;
1811;SDS011;904;47.814;11.134;2023-12-20T04:57:14;2.40;;;1.45;;
1811;SDS011;904;47.814;11.134;2023-12-20T04:59:41;2.50;;;1.30;;
1811;SDS011;904;47.814;11.134;2023-12-20T05:02:08;3.92;;;1.50;;
1811;SDS011;904;47.814;11.134;2023-12-20T05:04:35;4.05;;;2.20;;
1811;SDS011;904;47.814;11.134;2023-12-20T05:07:04;2.78;;;1.50;;
1811;SDS011;904;47.814;11.134;2023-12-20T05:09:32;2.30;;;1.38;;
1811;SDS011;904;47.814;11.134;2023-12-20T05:11:59;2.90;;;1.40;;
1811;SDS011;904;47.814;11.134;2023-12-20T05:14:28;2.20;;;1.20;;
1811;SDS011;904;47.814;11.134;2023-12-20T05:16:55;2.85;;;1.67;;
1811;SDS011;904;47.814;11.134;2023-12-20T05:19:22;5.65;;;1.58;;
1811;SDS011;904;47.814;11.134;2023-12-20T05:21:50;2.80;;;1.30;;
1811;SDS011;904;47.814;11.134;2023-12-20T05:24:21;3.00;;;1.55;;
1811;SDS011;904;47.814;11.134;2023-12-20T05:26:48;2.63;;;1.55;;
1811;SDS011;904;47.814;11.134;2023-12-20T05:29:15;4.68;;;1.75;;
1811;SDS011;904;47.814;11.134;2023-12-20T05:31:44;2.17;;;1.40;;
1811;SDS011;904;47.814;11.134;2023-12-20T05:34:11;3.72;;;1.88;;
1811;SDS011;904;47.814;11.134;2023-12-20T05:36:38;3.63;;;2.08;;
1811;SDS011;904;47.814;11.134;2023-12-20T05:39:05;4.07;;;1.90;;
1811;SDS011;904;47.814;11.134;2023-12-20T05:41:34;2.70;;;1.52;;
1811;SDS011;904;47.814;11.134;2023-12-20T05:44:01;2.63;;;1.85;;
1811;SDS011;904;47.814;11.134;2023-12-20T05:46:28;2.50;;;1.50;;
1811;SDS011;904;47.814;11.134;2023-12-20T05:48:57;3.13;;;2.22;;
1811;SDS011;904;47.814;11.134;2023-12-20T05:51:27;3.08;;;1.90;;
1811;SDS011;904;47.814;11.134;2023-12-20T05:53:54;2.63;;;1.70;;
1811;SDS011;904;47.814;11.134;2023-12-20T05:56:21;3.10;;;1.60;;
1811;SDS011;904;47.814;11.134;2023-12-20T05:58:48;2.75;;;1.30;;
1811;SDS011;904;47.814;11.134;2023-12-20T06:01:15;4.00;;;2.20;;
1811;SDS011;904;47.814;11.134;2023-12-20T06:03:48;2.83;;;1.70;;
1811;SDS011;904;47.814;11.134;2023-12-20T06:06:17;2.92;;;1.75;;
1811;SDS011;904;47.814;11.134;2023-12-20T06:08:44;12.57;;;4.63;;
1811;SDS011;904;47.814;11.134;2023-12-20T06:11:11;3.78;;;1.80;;
1811;SDS011;904;47.814;11.134;2023-12-20T06:13:42;3.05;;;1.80;;
1811;SDS011;904;47.814;11.134;2023-12-20T06:16:14;3.20;;;1.60;;
1811;SDS011;904;47.814;11.134;2023-12-20T06:18:42;4.03;;;2.28;;
1811;SDS011;904;47.814;11.134;2023-12-20T06:21:11;3.95;;;1.73;;
1811;SDS011;904;47.814;11.134;2023-12-20T06:23:39;2.60;;;1.35;;
1811;SDS011;904;47.814;11.134;2023-12-20T06:26:06;2.97;;;2.08;;
1811;SDS011;904;47.814;11.134;2023-12-20T06:28:34;4.10;;;1.67;;
1811;SDS011;904;47.814;11.134;2023-12-20T06:31:02;3.10;;;1.45;;
1811;SDS011;904;47.814;11.134;2023-12-20T06:33:30;4.50;;;2.03;;
1811;SDS011;904;47.814;11.134;2023-12-20T06:35:57;3.20;;;1.55;;
1811;SDS011;904;47.814;11.134;2023-12-20T06:38:25;2.72;;;1.70;;
1811;SDS011;904;47.814;11.134;2023-12-20T06:40:54;4.00;;;2.30;;
1811;SDS011;904;47.814;11.134;2023-12-20T06:43:22;4.90;;;3.22;;
1811;SDS011;904;47.814;11.134;2023-12-20T06:45:51;4.50;;;2.50;;
1811;SDS011;904;47.814;11.134;2023-12-20T06:48:19;3.75;;;2.22;;
1811;SDS011;904;47.814;11.134;2023-12-20T06:50:47;3.42;;;2.30;;
1811;SDS011;904;47.814;11.134;2023-12-20T06:53:16;5.35;;;1.80;;
1811;SDS011;904;47.814;11.134;2023-12-20T06:55:43;3.13;;;1.40;;
1811;SDS011;904;47.814;11.134;2023-12-20T06:58:12;2.50;;;1.40;;
1811;SDS011;904;47.814;11.134;2023-12-20T07:00:39;3.60;;;1.77;;
1811;SDS011;904;47.814;11.134;2023-12-20T07:03:07;2.55;;;1.52;;
1811;SDS011;904;47.814;11.134;2023-12-20T07:05:35;2.35;;;1.30;;
1811;SDS011;904;47.814;11.134;2023-12-20T07:08:02;2.30;;;1.20;;
1811;SDS011;904;47.814;11.134;2023-12-20T07:10:31;4.22;;;1.70;;
1811;SDS011;904;47.814;11.134;2023-12-20T07:12:58;2.90;;;1.50;;
1811;SDS011;904;47.814;11.134;2023-12-20T07:15:27;2.90;;;1.80;;
1811;SDS011;904;47.814;11.134;2023-12-20T07:17:59;2.67;;;1.25;;
1811;SDS011;904;47.814;11.134;2023-12-20T07:20:36;2.65;;;1.25;;
1811;SDS011;904;47.814;11.134;2023-12-20T07:23:03;2.40;;;1.20;;
1811;SDS011;904;47.814;11.134;2023-12-20T07:25:30;3.22;;;1.10;;
1811;SDS011;904;47.814;11.134;2023-12-20T07:27:58;2.13;;;1.05;;
1811;SDS011;904;47.814;11.134;2023-12-20T07:30:26;2.85;;;1.50;;
1811;SDS011;904;47.814;11.134;2023-12-20T07:32:54;2.65;;;1.30;;
1811;SDS011;904;47.814;11.134;2023-12-20T07:35:26;2.40;;;1.00;;
1811;SDS011;904;47.814;11.134;2023-12-20T07:37:53;3.15;;;1.20;;
1811;SDS011;904;47.814;11.134;2023-12-20T07:40:20;2.60;;;1.10;;
1811;SDS011;904;47.814;11.134;2023-12-20T07:42:47;2.25;;;0.90;;
1811;SDS011;904;47.814;11.134;2023-12-20T07:45:14;2.85;;;1.38;;
1811;SDS011;904;47.814;11.134;2023-12-20T07:47:42;2.35;;;1.13;;
1811;SDS011;904;47.814;11.134;2023-12-20T07:50:10;2.53;;;1.30;;
1811;SDS011;904;47.814;11.134;2023-12-20T07:52:46;2.10;;;0.80;;
1811;SDS011;904;47.814;11.134;2023-12-20T07:55:13;2.25;;;0.90;;
1811;SDS011;904;47.814;11.134;2023-12-20T07:57:43;2.28;;;1.10;;
1811;SDS011;904;47.814;11.134;2023-12-20T08:00:10;2.00;;;0.90;;
1811;SDS011;904;47.814;11.134;2023-12-20T08:02:38;2.20;;;0.90;;
1811;SDS011;904;47.814;11.134;2023-12-20T08:05:06;2.03;;;1.10;;
1811;SDS011;904;47.814;11.134;2023-12-20T08:07:34;1.75;;;0.75;;
1811;SDS011;904;47.814;11.134;2023-12-20T08:10:01;1.90;;;0.90;;
1811;SDS011;904;47.814;11.134;2023-12-20T08:12:28;2.30;;;0.75;;
1811;SDS011;904;47.814;11.134;2023-12-20T08:14:55;2.13;;;1.20;;
1811;SDS011;904;47.814;11.134;2023-12-20T08:17:22;2.15;;;0.90;;
1811;SDS011;904;47.814;11.134;2023-12-20T08:19:56;1.70;;;0.70;;
1811;SDS011;904;47.814;11.134;2023-12-20T08:22:25;2.35;;;1.00;;
1811;SDS011;904;47.814;11.134;2023-12-20T08:24:52;2.92;;;1.00;;
1811;SDS011;904;47.814;11.134;2023-12-20T08:27:21;1.88;;;0.70;;
1811;SDS011;904;47.814;11.134;2023-12-20T08:29:48;2.20;;;0.95;;
1811;SDS011;904;47.814;11.134;2023-12-20T08:32:15;2.00;;;1.02;;
1811;SDS011;904;47.814;11.134;2023-12-20T08:34:43;2.00;;;0.85;;
1811;SDS011;904;47.814;11.134;2023-12-20T08:37:09;1.75;;;0.77;;
1811;SDS011;904;47.814;11.134;2023-12-20T08:39:38;1.70;;;0.65;;
1811;SDS011;904;47.814;11.134;2023-12-20T08:42:05;2.00;;;0.80;;
1811;SDS011;904;47.814;11.134;2023-12-20T08:44:32;1.70;;;0.60;;
1811;SDS011;904;47.814;11.134;2023-12-20T08:46:59;2.17;;;1.00;;
1811;SDS011;904;47.814;11.134;2023-12-20T08:49:32;1.80;;;0.70;;
1811;SDS011;904;47.814;11.134;2023-12-20T08:51:59;8.00;;;1.58;;
1811;SDS011;904;47.814;11.134;2023-12-20T08:54:26;2.70;;;0.70;;
1811;SDS011;904;47.814;11.134;2023-12-20T08:56:55;1.90;;;0.70;;
1811;SDS011;904;47.814;11.134;2023-12-20T08:59:42;1.70;;;0.77;;
1811;SDS011;904;47.814;11.134;2023-12-20T09:02:14;1.70;;;0.70;;
1811;SDS011;904;47.814;11.134;2023-12-20T09:04:42;1.70;;;0.60;;
1811;SDS011;904;47.814;11.134;2023-12-20T09:07:20;2.10;;;1.02;;
1811;SDS011;904;47.814;11.134;2023-12-20T09:09:48;1.80;;;0.70;;
1811;SDS011;904;47.814;11.134;2023-12-20T09:12:17;1.73;;;0.75;;
1811;SDS011;904;47.814;11.134;2023-12-20T09:14:44;2.08;;;0.88;;
1811;SDS011;904;47.814;11.134;2023-12-20T09:17:12;2.45;;;1.00;;
1811;SDS011;904;47.814;11.134;2023-12-20T09:19:39;3.10;;;1.00;;
1811;SDS011;904;47.814;11.134;2023-12-20T09:22:11;4.05;;;0.90;;
1811;SDS011;904;47.814;11.134;2023-12-20T09:24:38;1.90;;;0.80;;
1811;SDS011;904;47.814;11.134;2023-12-20T09:27:05;2.08;;;0.80;;
1811;SDS011;904;47.814;11.134;2023-12-20T09:29:35;3.35;;;1.98;;
1811;SDS011;904;47.814;11.134;2023-12-20T09:32:03;1.80;;;0.70;;
1811;SDS011;904;47.814;11.134;2023-12-20T09:34:34;2.22;;;0.90;;
1811;SDS011;904;47.814;11.134;2023-12-20T09:37:02;2.00;;;0.82;;
1811;SDS011;904;47.814;11.134;2023-12-20T09:39:30;1.98;;;0.90;;
1811;SDS011;904;47.814;11.134;2023-12-20T09:42:00;3.90;;;1.20;;
1811;SDS011;904;47.814;11.134;2023-12-20T09:44:28;2.70;;;1.00;;
1811;SDS011;904;47.814;11.134;2023-12-20T09:46:57;2.45;;;0.80;;
1811;SDS011;904;47.814;11.134;2023-12-20T09:49:27;2.10;;;0.80;;
1811;SDS011;904;47.814;11.134;2023-12-20T09:51:56;2.08;;;0.82;;
1811;SDS011;904;47.814;11.134;2023-12-20T09:54:23;2.83;;;1.20;;
1811;SDS011;904;47.814;11.134;2023-12-20T09:56:50;1.98;;;0.75;;
1811;SDS011;904;47.814;11.134;2023-12-20T09:59:17;1.80;;;0.75;;
1811;SDS011;904;47.814;11.134;2023-12-20T10:01:44;1.92;;;0.68;;
1811;SDS011;904;47.814;11.134;2023-12-20T10:04:13;2.28;;;0.90;;
1811;SDS011;904;47.814;11.134;2023-12-20T10:06:40;2.15;;;0.98;;
1811;SDS011;904;47.814;11.134;2023-12-20T10:09:07;3.33;;;1.23;;
1811;SDS011;904;47.814;11.134;2023-12-20T10:11:35;1.80;;;0.80;;
1811;SDS011;904;47.814;11.134;2023-12-20T10:14:03;1.73;;;0.75;;
1811;SDS011;904;47.814;11.134;2023-12-20T10:16:31;2.05;;;0.90;;
1811;SDS011;904;47.814;11.134;2023-12-20T10:18:59;1.95;;;0.85;;
1811;SDS011;904;47.814;11.134;2023-12-20T10:21:28;2.17;;;0.90;;
1811;SDS011;904;47.814;11.134;2023-12-20T10:23:56;1.90;;;0.90;;
1811;SDS011;904;47.814;11.134;2023-12-20T10:26:24;2.08;;;0.82;;
1811;SDS011;904;47.814;11.134;2023-12-20T10:28:52;2.30;;;0.75;;
1811;SDS011;904;47.814;11.134;2023-12-20T10:31:30;2.03;;;0.88;;
1811;SDS011;904;47.814;11.134;2023-12-20T10:34:00;2.08;;;0.88;;
1811;SDS011;904;47.814;11.134;2023-12-20T10:36:30;2.83;;;0.90;;
1811;SDS011;904;47.814;11.134;2023-12-20T10:38:58;3.85;;;1.17;;
1811;SDS011;904;47.814;11.134;2023-12-20T10:41:27;2.00;;;0.90;;
1811;SDS011;904;47.814;11.134;2023-12-20T10:43:55;2.72;;;1.15;;
1811;SDS011;904;47.814;11.134;2023-12-20T10:46:24;2.08;;;0.90;;
1811;SDS011;904;47.814;11.134;2023-12-20T10:48:53;1.80;;;0.90;;
1811;SDS011;904;47.814;11.134;2023-12-20T10:51:21;2.13;;;1.00;;
1811;SDS011;904;47.814;11.134;2023-12-20T10:53:53;1.80;;;0.80;;
1811;SDS011;904;47.814;11.134;2023-12-20T10:56:21;1.70;;;0.70;;
1811;SDS011;904;47.814;11.134;2023-12-20T10:58:49;2.33;;;0.70;;
1811;SDS011;904;47.814;11.134;2023-12-20T11:01:17;1.90;;;0.82;;
1811;SDS011;904;47.814;11.134;2023-12-20T11:03:47;1.92;;;0.82;;
1811;SDS011;904;47.814;11.134;2023-12-20T11:06:19;3.65;;;0.90;;
1811;SDS011;904;47.814;11.134;2023-12-20T11:08:58;1.70;;;0.70;;
1811;SDS011;904;47.814;11.134;2023-12-20T11:11:37;1.70;;;0.80;;
1811;SDS011;904;47.814;11.134;2023-12-20T11:14:11;1.85;;;0.70;;
1811;SDS011;904;47.814;11.134;2023-12-20T11:16:43;1.70;;;0.82;;
1811;SDS011;904;47.814;11.134;2023-12-20T11:19:12;2.05;;;0.90;;
1811;SDS011;904;47.814;11.134;2023-12-20T11:21:40;2.70;;;1.00;;
1811;SDS011;904;47.814;11.134;2023-12-20T11:24:09;2.38;;;0.80;;
1811;SDS011;904;47.814;11.134;2023-12-20T11:26:36;1.70;;;0.60;;
1811;SDS011;904;47.814;11.134;2023-12-20T11:32:01;9.15;;;4.53;;
1811;SDS011;904;47.814;11.134;2023-12-20T11:34:31;2.00;;;0.82;;
1811;SDS011;904;47.814;11.134;2023-12-20T11:36:59;2.10;;;0.90;;
1811;SDS011;904;47.814;11.134;2023-12-20T11:39:28;1.80;;;0.80;;
1811;SDS011;904;47.814;11.134;2023-12-20T11:41:57;2.30;;;0.70;;
1811;SDS011;904;47.814;11.134;2023-12-20T11:44:30;2.10;;;0.90;;
1811;SDS011;904;47.814;11.134;2023-12-20T11:46:57;2.58;;;1.00;;
1811;SDS011;904;47.814;11.134;2023-12-20T11:49:25;1.90;;;0.77;;
1811;SDS011;904;47.814;11.134;2023-12-20T11:51:56;1.70;;;0.63;;
1811;SDS011;904;47.814;11.134;2023-12-20T11:54:23;2.20;;;0.90;;
1811;SDS011;904;47.814;11.134;2023-12-20T11:56:51;2.13;;;1.10;;
1811;SDS011;904;47.814;11.134;2023-12-20T11:59:18;1.70;;;0.70;;
1811;SDS011;904;47.814;11.134;2023-12-20T12:01:49;1.90;;;0.93;;
1811;SDS011;904;47.814;11.134;2023-12-20T12:04:16;2.03;;;0.80;;
1811;SDS011;904;47.814;11.134;2023-12-20T12:06:43;2.65;;;1.00;;
1811;SDS011;904;47.814;11.134;2023-12-20T12:09:11;2.15;;;0.90;;
1811;SDS011;904;47.814;11.134;2023-12-20T12:11:38;1.95;;;0.82;;
1811;SDS011;904;47.814;11.134;2023-12-20T12:14:06;1.90;;;0.85;;
1811;SDS011;904;47.814;11.134;2023-12-20T12:16:34;2.10;;;0.90;;
1811;SDS011;904;47.814;11.134;2023-12-20T12:19:01;1.80;;;0.80;;
1811;SDS011;904;47.814;11.134;2023-12-20T12:21:30;2.58;;;1.10;;
1811;SDS011;904;47.814;11.134;2023-12-20T12:24:06;1.70;;;0.80;;
1811;SDS011;904;47.814;11.134;2023-12-20T12:26:33;2.00;;;0.90;;
1811;SDS011;904;47.814;11.134;2023-12-20T12:29:03;1.90;;;0.88;;
1811;SDS011;904;47.814;11.134;2023-12-20T12:31:35;2.00;;;1.02;;
1811;SDS011;904;47.814;11.134;2023-12-20T12:34:03;1.90;;;0.70;;
1811;SDS011;904;47.814;11.134;2023-12-20T12:36:34;1.80;;;0.75;;
1811;SDS011;904;47.814;11.134;2023-12-20T12:39:06;3.15;;;1.42;;
1811;SDS011;904;47.814;11.134;2023-12-20T12:41:35;2.78;;;1.10;;
1811;SDS011;904;47.814;11.134;2023-12-20T12:44:02;2.40;;;1.10;;
1811;SDS011;904;47.814;11.134;2023-12-20T12:46:31;2.53;;;1.40;;
1811;SDS011;904;47.814;11.134;2023-12-20T12:48:59;2.80;;;1.50;;
1811;SDS011;904;47.814;11.134;2023-12-20T12:51:26;3.33;;;1.70;;
1811;SDS011;904;47.814;11.134;2023-12-20T12:53:56;4.97;;;1.65;;
1811;SDS011;904;47.814;11.134;2023-12-20T12:56:23;3.30;;;1.50;;
1811;SDS011;904;47.814;11.134;2023-12-20T12:58:50;2.53;;;1.40;;
1811;SDS011;904;47.814;11.134;2023-12-20T13:01:22;2.60;;;1.30;;
1811;SDS011;904;47.814;11.134;2023-12-20T13:03:53;2.97;;;1.50;;
1811;SDS011;904;47.814;11.134;2023-12-20T13:06:20;3.00;;;1.70;;
1811;SDS011;904;47.814;11.134;2023-12-20T13:08:50;2.83;;;1.42;;
1811;SDS011;904;47.814;11.134;2023-12-20T13:11:23;3.00;;;1.45;;
1811;SDS011;904;47.814;11.134;2023-12-20T13:13:50;2.95;;;1.83;;
1811;SDS011;904;47.814;11.134;2023-12-20T13:16:17;2.70;;;1.75;;
1811;SDS011;904;47.814;11.134;2023-12-20T13:18:44;3.38;;;1.65;;
1811;SDS011;904;47.814;11.134;2023-12-20T13:21:13;3.22;;;1.52;;
1811;SDS011;904;47.814;11.134;2023-12-20T13:23:40;2.67;;;1.20;;
1811;SDS011;904;47.814;11.134;2023-12-20T13:26:07;3.58;;;2.10;;
1811;SDS011;904;47.814;11.134;2023-12-20T13:28:34;3.00;;;1.83;;
1811;SDS011;904;47.814;11.134;2023-12-20T13:31:01;2.53;;;1.50;;
1811;SDS011;904;47.814;11.134;2023-12-20T13:33:28;2.45;;;1.27;;
1811;SDS011;904;47.814;11.134;2023-12-20T13:35:55;2.55;;;1.60;;
1811;SDS011;904;47.814;11.134;2023-12-20T13:38:24;2.38;;;1.10;;
1811;SDS011;904;47.814;11.134;2023-12-20T13:40:52;2.00;;;1.00;;
1811;SDS011;904;47.814;11.134;2023-12-20T13:43:19;2.33;;;1.10;;
1811;SDS011;904;47.814;11.134;2023-12-20T13:45:46;2.10;;;1.23;;
1811;SDS011;904;47.814;11.134;2023-12-20T13:48:14;2.33;;;1.20;;
1811;SDS011;904;47.814;11.134;2023-12-20T13:50:41;2.53;;;1.15;;
1811;SDS011;904;47.814;11.134;2023-12-20T13:53:08;2.70;;;1.30;;
1811;SDS011;904;47.814;11.134;2023-12-20T13:55:37;2.47;;;1.40;;
1811;SDS011;904;47.814;11.134;2023-12-20T13:58:04;2.00;;;1.00;;
1811;SDS011;904;47.814;11.134;2023-12-20T14:00:31;2.30;;;1.10;;
1811;SDS011;904;47.814;11.134;2023-12-20T14:02:58;2.97;;;1.42;;
1811;SDS011;904;47.814;11.134;2023-12-20T14:05:25;2.95;;;1.35;;
1811;SDS011;904;47.814;11.134;2023-12-20T14:07:53;2.25;;;1.33;;
1811;SDS011;904;47.814;11.134;2023-12-20T14:10:22;2.55;;;1.20;;
1811;SDS011;904;47.814;11.134;2023-12-20T14:12:52;2.42;;;1.20;;
1811;SDS011;904;47.814;11.134;2023-12-20T14:15:20;1.90;;;1.02;;
1811;SDS011;904;47.814;11.134;2023-12-20T14:17:47;5.28;;;1.50;;
1811;SDS011;904;47.814;11.134;2023-12-20T14:20:13;2.40;;;1.27;;
1811;SDS011;904;47.814;11.134;2023-12-20T14:22:41;3.88;;;1.40;;
1811;SDS011;904;47.814;11.134;2023-12-20T14:25:10;2.40;;;1.17;;
1811;SDS011;904;47.814;11.134;2023-12-20T14:27:37;2.33;;;1.20;;
1811;SDS011;904;47.814;11.134;2023-12-20T14:30:07;2.10;;;1.20;;
1811;SDS011;904;47.814;11.134;2023-12-20T14:32:34;2.65;;;1.25;;
1811;SDS011;904;47.814;11.134;2023-12-20T14:35:03;2.30;;;1.30;;
1811;SDS011;904;47.814;11.134;2023-12-20T14:37:31;4.30;;;1.30;;
1811;SDS011;904;47.814;11.134;2023-12-20T14:39:58;2.78;;;1.30;;
1811;SDS011;904;47.814;11.134;2023-12-20T14:42:25;3.10;;;1.30;;
1811;SDS011;904;47.814;11.134;2023-12-20T14:44:52;1.98;;;0.95;;
1811;SDS011;904;47.814;11.134;2023-12-20T14:47:21;2.22;;;1.38;;
1811;SDS011;904;47.814;11.134;2023-12-20T14:49:50;3.25;;;1.67;;
1811;SDS011;904;47.814;11.134;2023-12-20T14:52:19;2.55;;;1.60;;
1811;SDS011;904;47.814;11.134;2023-12-20T14:54:46;2.92;;;1.52;;
1811;SDS011;904;47.814;11.134;2023-12-20T14:57:13;3.38;;;1.60;;
1811;SDS011;904;47.814;11.134;2023-12-20T14:59:40;3.10;;;1.60;;
1811;SDS011;904;47.814;11.134;2023-12-20T15:02:08;9.35;;;5.32;;
1811;SDS011;904;47.814;11.134;2023-12-20T15:04:36;2.90;;;1.63;;
1811;SDS011;904;47.814;11.134;2023-12-20T15:07:03;2.85;;;1.67;;
1811;SDS011;904;47.814;11.134;2023-12-20T15:09:31;2.10;;;0.98;;
1811;SDS011;904;47.814;11.134;2023-12-20T15:11:58;2.50;;;1.17;;
1811;SDS011;904;47.814;11.134;2023-12-20T15:14:25;2.50;;;1.17;;
1811;SDS011;904;47.814;11.134;2023-12-20T15:16:53;2.97;;;1.30;;
1811;SDS011;904;47.814;11.134;2023-12-20T15:19:21;2.42;;;1.42;;
1811;SDS011;904;47.814;11.134;2023-12-20T15:21:49;2.50;;;1.55;;
1811;SDS011;904;47.814;11.134;2023-12-20T15:24:16;3.30;;;1.40;;